Time;durP1;ratioP1;P1;durP2;ratioP2;P2;SDS_P1;SDS_P2;PMS_P1;PMS_P2;Temp;Humidity;BMP_temperature;BMP_pressure;BME280_temperature;BME280_humidity;BME280_pressure;Samples;Min_cycle;Max_cycle;Signal;HPM_P1;HPM_P2
2022/08/25 00:00:20;;;;;;;9.98;8.98;;;20.80;99.90;;;;;;5125061;27;20046;-75
2022/08/25 00:02:46;;;;;;;10.18;8.80;;;20.80;99.90;;;;;;5100550;27;20047;-75
2022/08/25 00:05:12;;;;;;;9.60;8.45;;;20.80;99.90;;;;;;5126462;27;20053;-75
2022/08/25 00:07:38;;;;;;;10.15;8.57;;;20.70;99.90;;;;;;5121608;27;20047;-75
2022/08/25 00:10:06;;;;;;;10.88;9.77;;;20.70;99.90;;;;;;5124003;27;20134;-75
2022/08/25 00:12:32;;;;;;;12.45;8.65;;;20.70;99.90;;;;;;5117161;27;20111;-75
2022/08/25 00:14:57;;;;;;;10.00;9.00;;;20.70;99.90;;;;;;5122244;27;20046;-75
2022/08/25 00:17:23;;;;;;;10.52;9.02;;;20.70;99.90;;;;;;5126303;27;20039;-75
2022/08/25 00:19:49;;;;;;;11.55;9.18;;;20.70;99.90;;;;;;5123985;27;20085;-75
2022/08/25 00:22:15;;;;;;;9.80;8.80;;;20.70;99.90;;;;;;5120026;27;20043;-75
2022/08/25 00:24:40;;;;;;;12.77;9.82;;;20.60;99.90;;;;;;5103040;27;20134;-75
2022/08/25 00:27:06;;;;;;;9.70;8.07;;;20.60;99.90;;;;;;5128356;27;20092;-75
2022/08/25 00:29:33;;;;;;;9.68;8.68;;;20.50;99.90;;;;;;5124415;27;20581;-75
2022/08/25 00:31:59;;;;;;;9.52;7.97;;;20.50;99.90;;;;;;5129793;27;20454;-75
2022/08/25 00:34:33;;;;;;;9.25;7.80;;;20.50;99.90;;;;;;5122814;27;20053;-75
2022/08/25 00:36:59;;;;;;;9.18;8.07;;;20.50;99.90;;;;;;5126127;27;20054;-75
2022/08/25 00:39:26;;;;;;;10.60;7.45;;;20.40;99.90;;;;;;5126045;27;20081;-75
2022/08/25 00:41:55;;;;;;;8.15;7.32;;;20.40;99.90;;;;;;5125838;27;20054;-75
2022/08/25 00:44:22;;;;;;;7.25;5.90;;;;;;;;;;5125049;27;20043;-75
2022/08/25 00:46:55;;;;;;;9.40;6.80;;;20.30;99.90;;;;;;5117330;27;20046;-75
2022/08/25 00:49:26;;;;;;;8.50;6.88;;;20.20;99.90;;;;;;5121814;27;20080;-75
2022/08/25 00:52:04;;;;;;;7.80;6.40;;;19.80;99.90;;;;;;5126299;27;20099;-75
2022/08/25 00:54:35;;;;;;;10.43;7.30;;;20.30;99.90;;;;;;5133848;27;20817;-75
2022/08/25 00:57:03;;;;;;;8.00;6.43;;;20.10;99.90;;;;;;5121428;27;20058;-75
2022/08/25 00:59:29;;;;;;;7.07;6.38;;;20.20;99.90;;;;;;5136039;27;20118;-75
2022/08/25 01:01:56;;;;;;;7.60;6.80;;;20.20;99.90;;;;;;5124934;27;20046;-75
2022/08/25 01:04:22;;;;;;;7.10;6.40;;;20.20;99.90;;;;;;5133600;27;20050;-75
2022/08/25 01:06:48;;;;;;;7.72;6.93;;;20.20;99.90;;;;;;5136524;27;20039;-75
2022/08/25 01:09:14;;;;;;;11.45;6.47;;;20.10;99.90;;;;;;5126510;27;20082;-75
2022/08/25 01:11:43;;;;;;;7.60;5.85;;;20.10;99.90;;;;;;5120840;27;20075;-76
2022/08/25 01:14:10;;;;;;;6.90;6.28;;;20.10;99.90;;;;;;5125740;27;20051;-76
2022/08/25 01:16:38;;;;;;;9.07;6.95;;;20.20;99.90;;;;;;5140537;27;20782;-75
2022/08/25 01:19:06;;;;;;;7.55;6.78;;;20.20;99.90;;;;;;5137029;27;20039;-75
2022/08/25 01:21:44;;;;;;;7.95;6.47;;;20.20;99.90;;;;;;5132354;27;20473;-75
2022/08/25 01:24:33;;;;;;;8.00;6.93;;;20.20;99.90;;;;;;5116684;27;20163;-75
2022/08/25 01:27:00;;;;;;;11.32;7.50;;;20.20;99.90;;;;;;5111193;27;20740;-76
2022/08/25 01:29:26;;;;;;;8.57;6.78;;;20.10;99.90;;;;;;5129264;27;20043;-75
2022/08/25 01:31:59;;;;;;;8.20;7.45;;;20.10;99.90;;;;;;5111270;27;20431;-75
2022/08/25 01:34:28;;;;;;;11.13;7.20;;;20.10;99.90;;;;;;5123772;27;20173;-75
2022/08/25 01:36:55;;;;;;;8.18;7.38;;;20.10;99.90;;;;;;5130400;27;20043;-76
2022/08/25 01:39:22;;;;;;;8.15;7.35;;;20.00;99.90;;;;;;5115924;27;20436;-75
2022/08/25 01:41:47;;;;;;;12.13;8.73;;;20.00;99.90;;;;;;5139890;27;20046;-75
2022/08/25 01:44:14;;;;;;;8.75;7.90;;;19.90;99.90;;;;;;5136055;27;20074;-75
2022/08/25 01:46:40;;;;;;;11.38;8.63;;;19.90;99.90;;;;;;5137738;27;20051;-75
2022/08/25 01:49:06;;;;;;;11.95;7.93;;;19.80;99.90;;;;;;5134971;27;20365;-75
2022/08/25 01:51:42;;;;;;;8.60;7.72;;;19.80;99.90;;;;;;5101367;27;20563;-75
2022/08/25 01:54:08;;;;;;;9.73;8.40;;;19.80;99.90;;;;;;5121458;27;20175;-75
2022/08/25 01:56:34;;;;;;;9.82;6.60;;;19.80;99.90;;;;;;5130959;27;20482;-75
2022/08/25 01:59:00;;;;;;;8.68;7.78;;;19.70;99.90;;;;;;5129351;27;20088;-75
2022/08/25 02:01:26;;;;;;;7.07;6.45;;;19.70;99.90;;;;;;5131780;27;20035;-75
2022/08/25 02:03:54;;;;;;;11.52;7.00;;;19.70;99.90;;;;;;5126958;27;20082;-75
2022/08/25 02:06:25;;;;;;;7.53;6.75;;;19.70;99.90;;;;;;5129474;27;20106;-75
2022/08/25 02:08:57;;;;;;;9.40;7.25;;;19.70;99.90;;;;;;5136737;27;20537;-75
2022/08/25 02:11:24;;;;;;;9.65;7.03;;;19.60;99.90;;;;;;5132558;27;20587;-75
2022/08/25 02:13:51;;;;;;;7.13;6.35;;;19.60;99.90;;;;;;5123729;27;20482;-75
2022/08/25 02:16:24;;;;;;;7.30;6.40;;;19.60;99.90;;;;;;5133217;27;20165;-74
2022/08/25 02:18:51;;;;;;;10.45;7.57;;;19.50;99.90;;;;;;5132227;27;20118;-75
2022/08/25 02:21:17;;;;;;;10.07;7.45;;;19.50;99.90;;;;;;5136568;27;20049;-75
2022/08/25 02:23:43;;;;;;;9.70;6.43;;;19.40;99.90;;;;;;5119000;27;20064;-75
2022/08/25 02:26:09;;;;;;;7.90;6.70;;;19.40;99.90;;;;;;5138431;27;20107;-75
2022/08/25 02:28:36;;;;;;;9.07;6.68;;;19.40;99.90;;;;;;5139436;27;20042;-75
2022/08/25 02:31:04;;;;;;;8.20;6.57;;;19.40;99.90;;;;;;5127773;27;20049;-75
2022/08/25 02:33:30;;;;;;;9.25;6.78;;;19.30;99.90;;;;;;5127557;27;20107;-74
2022/08/25 02:36:00;;;;;;;8.10;6.50;;;19.30;99.90;;;;;;5135709;27;20051;-75
2022/08/25 02:38:26;;;;;;;11.93;6.32;;;19.30;99.90;;;;;;5120719;27;20669;-75
2022/08/25 02:40:54;;;;;;;6.55;5.47;;;19.30;99.90;;;;;;5134718;27;20044;-75
2022/08/25 02:43:19;;;;;;;10.90;6.57;;;19.30;99.90;;;;;;5128680;27;20050;-75
2022/08/25 02:45:45;;;;;;;8.00;6.32;;;19.20;99.90;;;;;;5123822;27;20043;-75
2022/08/25 02:48:11;;;;;;;9.27;6.18;;;19.20;99.90;;;;;;5107137;27;20051;-75
2022/08/25 02:50:36;;;;;;;6.75;6.07;;;19.20;99.90;;;;;;5103417;27;20043;-75
2022/08/25 02:53:03;;;;;;;10.25;6.28;;;19.20;99.90;;;;;;5107629;27;20050;-75
2022/08/25 02:55:28;;;;;;;7.55;5.68;;;19.20;99.90;;;;;;5123614;27;20042;-75
2022/08/25 02:57:54;;;;;;;7.85;5.97;;;19.10;99.90;;;;;;5134565;27;20049;-75
2022/08/25 03:00:20;;;;;;;6.35;5.75;;;19.10;99.90;;;;;;5133981;27;20479;-75
2022/08/25 03:02:46;;;;;;;6.63;5.97;;;19.00;99.90;;;;;;5127507;27;20074;-75
2022/08/25 03:05:13;;;;;;;9.02;5.78;;;19.00;99.90;;;;;;5126498;27;20099;-75
2022/08/25 03:07:39;;;;;;;6.60;5.45;;;19.00;99.90;;;;;;5134040;27;20046;-75
2022/08/25 03:10:12;;;;;;;7.80;6.18;;;19.00;99.90;;;;;;5132605;27;20138;-75
2022/08/25 03:12:40;;;;;;;8.50;5.47;;;18.90;99.90;;;;;;5135343;27;20078;-75
2022/08/25 03:15:08;;;;;;;7.50;5.70;;;19.00;99.90;;;;;;5127908;27;20123;-75
2022/08/25 03:17:33;;;;;;;6.72;5.90;;;18.90;99.90;;;;;;5137620;27;20094;-75
2022/08/25 03:19:59;;;;;;;5.78;5.18;;;18.90;99.90;;;;;;5138753;27;20922;-75
2022/08/25 03:22:25;;;;;;;12.40;6.30;;;18.90;99.90;;;;;;5137374;27;20084;-75
2022/08/25 03:24:50;;;;;;;7.05;5.93;;;18.90;99.90;;;;;;5138369;27;20805;-75
2022/08/25 03:27:16;;;;;;;6.60;5.80;;;18.90;99.90;;;;;;5136646;27;20062;-75
2022/08/25 03:29:42;;;;;;;8.85;5.80;;;18.80;99.90;;;;;;5135430;27;20186;-75
2022/08/25 03:32:08;;;;;;;8.52;6.15;;;18.80;99.90;;;;;;5121860;27;20047;-75
2022/08/25 03:34:34;;;;;;;6.05;5.20;;;18.80;99.90;;;;;;5131228;27;20398;-75
2022/08/25 03:37:00;;;;;;;9.75;6.32;;;18.70;99.90;;;;;;5127338;27;20089;-75
2022/08/25 03:39:27;;;;;;;8.00;5.68;;;18.70;99.90;;;;;;5120876;27;20043;-75
2022/08/25 03:41:53;;;;;;;7.65;5.60;;;18.60;99.90;;;;;;5126436;27;20050;-75
2022/08/25 03:44:20;;;;;;;9.23;6.40;;;18.50;99.90;;;;;;5124115;27;20087;-74
2022/08/25 03:46:48;;;;;;;11.15;6.10;;;18.50;99.90;;;;;;5126889;27;20159;-75
2022/08/25 03:49:17;;;;;;;7.00;5.95;;;18.50;99.90;;;;;;5132456;27;20111;-75
2022/08/25 03:51:46;;;;;;;8.32;5.78;;;18.40;99.90;;;;;;5116172;27;20383;-75
2022/08/25 03:54:14;;;;;;;7.72;5.95;;;18.40;99.90;;;;;;5132317;27;20091;-75
2022/08/25 03:56:40;;;;;;;11.52;6.35;;;18.30;99.90;;;;;;5132731;27;20042;-74
2022/08/25 03:59:09;;;;;;;10.52;6.43;;;18.30;99.90;;;;;;5133751;27;20043;-75
2022/08/25 04:01:40;;;;;;;6.75;6.15;;;18.30;99.90;;;;;;5135307;27;20114;-74
2022/08/25 04:04:08;;;;;;;8.13;5.35;;;18.30;99.90;;;;;;5131347;27;20114;-74
2022/08/25 04:06:34;;;;;;;6.45;5.50;;;18.30;99.90;;;;;;5132509;27;20480;-74
2022/08/25 04:08:59;;;;;;;9.25;5.53;;;18.30;99.90;;;;;;5132567;27;20054;-75
2022/08/25 04:11:26;;;;;;;7.53;5.63;;;18.30;99.90;;;;;;5115625;27;20057;-74
2022/08/25 04:13:55;;;;;;;7.55;5.32;;;18.30;99.90;;;;;;5131284;27;20097;-75
2022/08/25 04:16:23;;;;;;;6.85;6.00;;;18.30;99.90;;;;;;5129681;27;20070;-74
2022/08/25 04:18:51;;;;;;;7.75;6.15;;;18.30;99.90;;;;;;5134298;27;20410;-74
2022/08/25 04:21:19;;;;;;;8.40;5.45;;;18.20;99.90;;;;;;5128865;27;20155;-74
2022/08/25 04:23:47;;;;;;;7.88;6.18;;;18.20;99.90;;;;;;5132404;27;20046;-74
2022/08/25 04:26:18;;;;;;;10.00;6.50;;;18.20;99.90;;;;;;5134439;27;20097;-74
2022/08/25 04:28:44;;;;;;;8.50;5.70;;;18.20;99.90;;;;;;5129355;27;20049;-74
2022/08/25 04:31:15;;;;;;;9.70;6.18;;;18.10;99.90;;;;;;5133980;27;20910;-74
2022/08/25 04:33:42;;;;;;;6.60;5.60;;;18.10;99.90;;;;;;5111287;27;20137;-75
2022/08/25 04:36:10;;;;;;;6.55;5.55;;;18.10;99.90;;;;;;5133237;27;20047;-75
2022/08/25 04:38:37;;;;;;;9.30;5.55;;;18.10;99.90;;;;;;5114138;27;20540;-75
2022/08/25 04:41:05;;;;;;;6.20;5.10;;;18.10;99.90;;;;;;5132039;27;20126;-74
2022/08/25 04:43:32;;;;;;;11.27;5.40;;;18.10;99.90;;;;;;5131880;27;20046;-74
2022/08/25 04:46:03;;;;;;;8.00;6.05;;;18.10;99.90;;;;;;5133955;27;20153;-75
2022/08/25 04:48:29;;;;;;;6.47;5.35;;;18.10;99.90;;;;;;5130088;27;20065;-75
2022/08/25 04:50:54;;;;;;;7.18;5.47;;;18.10;99.90;;;;;;5133715;27;20423;-75
2022/08/25 04:53:20;;;;;;;7.25;5.35;;;18.10;99.90;;;;;;5130507;27;20490;-75
2022/08/25 04:55:47;;;;;;;5.65;4.97;;;18.10;99.90;;;;;;5130596;27;20051;-75
2022/08/25 04:58:15;;;;;;;14.73;6.25;;;18.10;99.90;;;;;;5131109;27;20603;-75
2022/08/25 05:00:42;;;;;;;6.65;4.93;;;18.10;99.90;;;;;;5128595;27;20485;-75
2022/08/25 05:03:08;;;;;;;8.13;5.57;;;18.10;99.90;;;;;;5134817;27;20050;-76
2022/08/25 05:05:37;;;;;;;12.98;6.25;;;18.10;99.90;;;;;;5109448;27;20039;-75
2022/08/25 05:08:05;;;;;;;8.30;5.57;;;18.10;99.90;;;;;;5110303;27;20170;-76
2022/08/25 05:10:32;;;;;;;7.38;5.93;;;18.00;99.90;;;;;;5126462;27;20040;-75
2022/08/25 05:12:58;;;;;;;8.23;6.00;;;18.10;99.90;;;;;;5107383;27;20119;-74
2022/08/25 05:18:09;;;;;;;7.85;5.97;;;18.10;99.90;;;;;;5130440;27;20053;-75
2022/08/25 05:20:36;;;;;;;8.70;5.97;;;18.10;99.90;;;;;;5126068;27;20046;-76
2022/08/25 05:23:02;;;;;;;6.88;5.45;;;18.10;99.90;;;;;;5129590;27;20126;-76
2022/08/25 05:25:28;;;;;;;8.98;5.45;;;18.20;99.90;;;;;;5126609;27;20054;-76
2022/08/25 05:27:54;;;;;;;8.23;5.60;;;18.20;99.90;;;;;;5126566;27;20042;-76
2022/08/25 05:30:19;;;;;;;7.63;5.85;;;18.20;99.90;;;;;;5127122;27;20090;-76
2022/08/25 05:32:45;;;;;;;15.80;6.13;;;18.30;99.90;;;;;;5123205;27;20252;-76
2022/08/25 05:35:11;;;;;;;7.88;5.90;;;18.40;99.90;;;;;;5127043;27;20093;-74
2022/08/25 05:37:36;;;;;;;7.35;6.38;;;18.40;99.90;;;;;;5109413;27;20760;-75
2022/08/25 05:40:04;;;;;;;9.00;6.50;;;18.50;99.90;;;;;;5111444;27;20051;-76
2022/08/25 05:42:30;;;;;;;9.38;6.25;;;18.50;99.90;;;;;;5134767;27;20226;-75
2022/08/25 05:44:56;;;;;;;8.23;5.55;;;18.50;99.90;;;;;;5131197;27;20059;-75
2022/08/25 05:47:21;;;;;;;11.60;6.43;;;18.60;99.90;;;;;;5135417;27;20866;-76
2022/08/25 05:49:47;;;;;;;6.50;5.43;;;18.60;99.90;;;;;;5128013;27;20142;-75
2022/08/25 05:52:13;;;;;;;8.40;5.75;;;18.70;99.90;;;;;;5116164;27;20134;-76
2022/08/25 05:54:39;;;;;;;7.78;5.82;;;18.70;99.90;;;;;;5131618;27;20043;-75
2022/08/25 05:57:05;;;;;;;8.23;5.80;;;18.80;99.90;;;;;;5127202;27;20126;-75
2022/08/25 05:59:31;;;;;;;8.70;6.55;;;18.80;99.90;;;;;;5111227;27;20045;-76
2022/08/25 06:04:42;;;;;;;8.38;6.25;;;19.00;99.90;;;;;;5130867;27;20123;-76
2022/08/25 06:07:08;;;;;;;13.43;5.85;;;19.10;99.90;;;;;;5126842;27;20047;-76
2022/08/25 06:09:37;;;;;;;8.82;6.63;;;19.10;99.90;;;;;;5128746;27;20043;-76
2022/08/25 06:12:03;;;;;;;9.98;6.35;;;19.20;99.90;;;;;;5113059;27;20580;-76
2022/08/25 06:14:29;;;;;;;11.70;6.95;;;19.30;99.90;;;;;;5135455;27;20135;-77
2022/08/25 06:16:55;;;;;;;7.68;6.03;;;19.40;99.90;;;;;;5122001;27;20043;-76
2022/08/25 06:19:22;;;;;;;8.23;6.03;;;19.50;99.90;;;;;;5104607;27;20138;-78
2022/08/25 06:21:48;;;;;;;9.20;6.43;;;19.60;99.90;;;;;;5130350;27;20748;-81
2022/08/25 06:24:14;;;;;;;8.48;5.80;;;19.70;99.90;;;;;;5111413;27;20130;-77
2022/08/25 06:26:39;;;;;;;8.52;6.28;;;19.90;99.90;;;;;;5122345;27;20757;-76
2022/08/25 06:29:05;;;;;;;8.85;6.25;;;20.00;99.90;;;;;;5122534;27;20532;-79
2022/08/25 06:31:31;;;;;;;10.30;6.75;;;20.10;99.90;;;;;;5128532;27;20599;-77
2022/08/25 06:33:57;;;;;;;10.88;6.40;;;20.20;99.90;;;;;;5119695;27;20035;-78
2022/08/25 06:36:23;;;;;;;9.18;6.43;;;20.30;99.90;;;;;;5130301;27;20512;-77
2022/08/25 06:38:49;;;;;;;8.40;6.18;;;20.40;99.90;;;;;;5125380;27;20490;-77
2022/08/25 06:41:15;;;;;;;11.35;6.47;;;20.60;99.90;;;;;;5135442;27;20046;-77
2022/08/25 06:43:41;;;;;;;7.75;6.53;;;20.70;99.90;;;;;;5128987;27;20110;-78
2022/08/25 06:46:08;;;;;;;13.60;7.43;;;20.90;99.90;;;;;;5131536;27;20054;-78
2022/08/25 06:48:34;;;;;;;7.00;6.15;;;21.00;99.90;;;;;;5111088;27;20061;-77
2022/08/25 06:51:08;;;;;;;7.03;6.13;;;21.20;99.90;;;;;;5109409;27;20054;-78
2022/08/25 06:53:34;;;;;;;10.88;6.55;;;21.30;99.90;;;;;;5127895;27;20058;-79
2022/08/25 06:56:00;;;;;;;12.43;6.47;;;21.40;99.90;;;;;;5135308;27;20119;-79
2022/08/25 06:58:26;;;;;;;9.18;6.35;;;21.60;99.90;;;;;;5132748;27;20474;-78
2022/08/25 07:00:52;;;;;;;10.40;6.07;;;21.70;99.90;;;;;;5115912;27;20046;-78
2022/08/25 07:03:17;;;;;;;10.23;5.95;;;21.90;99.90;;;;;;5111207;27;20081;-79
2022/08/25 07:05:55;;;;;;;9.50;6.22;;;22.10;99.90;;;;;;5129719;27;20045;-78
2022/08/25 07:08:21;;;;;;;7.47;5.97;;;22.40;99.90;;;;;;5126570;27;20038;-79
2022/08/25 07:10:47;;;;;;;10.00;6.18;;;22.80;99.90;;;;;;5110130;27;20046;-79
2022/08/25 07:13:13;;;;;;;10.68;5.65;;;23.90;99.90;;;;;;4772901;27;10000015;-78
2022/08/25 07:15:41;;;;;;;6.68;5.40;;;25.40;99.90;;;;;;5129537;27;20592;-78
2022/08/25 07:18:07;;;;;;;9.70;5.68;;;26.60;98.40;;;;;;5127912;27;20406;-78
2022/08/25 07:20:40;;;;;;;6.97;5.60;;;27.60;97.00;;;;;;5132526;27;20103;-79
2022/08/25 07:23:06;;;;;;;8.48;5.53;;;28.50;94.90;;;;;;5112847;27;20050;-80
2022/08/25 07:25:35;;;;;;;10.00;5.55;;;29.20;94.10;;;;;;5130501;27;20073;-79
2022/08/25 07:28:02;;;;;;;8.13;5.40;;;29.70;92.80;;;;;;5129781;27;20123;-79
2022/08/25 07:30:28;;;;;;;7.85;5.47;;;30.20;92.10;;;;;;5130867;27;20042;-79
2022/08/25 07:32:54;;;;;;;7.45;5.30;;;30.70;91.70;;;;;;5127643;27;20077;-79
2022/08/25 07:35:22;;;;;;;7.28;5.45;;;31.20;90.80;;;;;;5108018;27;20137;-78
2022/08/25 07:37:55;;;;;;;7.30;4.75;;;31.70;90.60;;;;;;5131942;27;20054;-80
2022/08/25 07:40:32;;;;;;;10.63;5.82;;;32.10;89.00;;;;;;5133282;27;20145;-79
2022/08/25 07:43:01;;;;;;;6.75;5.35;;;32.50;86.50;;;;;;5090677;27;20052;-77
2022/08/25 07:45:29;;;;;;;6.75;5.22;;;32.80;86.80;;;;;;5103565;27;20105;-76
2022/08/25 07:47:58;;;;;;;8.95;5.50;;;33.00;85.30;;;;;;5126009;27;20125;-75
2022/08/25 07:50:24;;;;;;;7.07;5.03;;;33.30;84.50;;;;;;5132532;27;20053;-75
2022/08/25 07:52:50;;;;;;;5.93;4.90;;;33.50;83.30;;;;;;5125523;27;20043;-76
2022/08/25 07:55:16;;;;;;;5.60;4.57;;;33.80;82.80;;;;;;5124455;27;20429;-74
2022/08/25 07:57:42;;;;;;;10.07;5.53;;;34.20;82.20;;;;;;5122511;27;20883;-76
2022/08/25 08:00:09;;;;;;;5.00;4.50;;;34.30;80.80;;;;;;5117402;27;20482;-76
2022/08/25 08:02:39;;;;;;;9.35;4.90;;;34.20;79.90;;;;;;5119035;27;20085;-77
2022/08/25 08:05:06;;;;;;;7.68;4.88;;;34.50;79.00;;;;;;5094176;27;20165;-78
2022/08/25 08:07:32;;;;;;;7.28;4.55;;;34.90;79.30;;;;;;5126988;27;20081;-77
2022/08/25 08:09:58;;;;;;;14.23;4.85;;;34.90;78.60;;;;;;5128264;27;20038;-77
2022/08/25 08:12:24;;;;;;;6.50;5.05;;;34.90;78.60;;;;;;5125496;27;20077;-77
2022/08/25 08:14:51;;;;;;;8.15;5.25;;;35.10;78.20;;;;;;5128315;27;20043;-78
2022/08/25 08:17:16;;;;;;;9.75;5.05;;;35.40;77.00;;;;;;5124890;27;20068;-77
2022/08/25 08:19:43;;;;;;;7.43;4.85;;;35.40;75.70;;;;;;5125221;27;20042;-77
2022/08/25 08:22:10;;;;;;;7.93;4.07;;;35.60;75.50;;;;;;5124431;27;20054;-77
2022/08/25 08:24:38;;;;;;;5.82;4.38;;;35.60;74.60;;;;;;5125768;27;20057;-77
2022/08/25 08:27:07;;;;;;;7.72;4.22;;;35.80;74.60;;;;;;5128618;27;20065;-77
2022/08/25 08:29:34;;;;;;;8.38;4.47;;;35.70;73.30;;;;;;5130296;27;20058;-77
2022/08/25 08:32:02;;;;;;;6.35;4.88;;;35.80;73.40;;;;;;5129852;27;20061;-76
2022/08/25 08:34:28;;;;;;;7.65;4.88;;;35.80;73.30;;;;;;5122585;27;20130;-76
2022/08/25 08:36:55;;;;;;;10.35;4.93;;;35.60;73.20;;;;;;5131878;27;20042;-78
2022/08/25 08:39:20;;;;;;;5.85;4.43;;;35.50;73.10;;;;;;5131386;27;20039;-78
2022/08/25 08:42:17;;;;;;;6.28;3.97;;;35.30;73.10;;;;;;5113667;27;20061;-77
2022/08/25 08:44:46;;;;;;;4.38;3.83;;;35.20;72.90;;;;;;5094531;27;20153;-77
2022/08/25 08:47:27;;;;;;;6.00;4.25;;;35.20;72.50;;;;;;5129623;27;20058;-77
2022/08/25 08:50:01;;;;;;;6.65;4.72;;;35.30;72.70;;;;;;5126581;27;20057;-77
2022/08/25 08:52:54;;;;;;;5.32;4.07;;;35.60;72.10;;;;;;5125021;27;20043;-78
2022/08/25 08:55:34;;;;;;;6.35;3.67;;;35.50;71.60;;;;;;5115124;27;20174;-77
2022/08/25 08:58:09;;;;;;;4.97;3.55;;;35.60;70.30;;;;;;5119209;27;20774;-77
2022/08/25 09:00:42;;;;;;;7.13;4.45;;;35.90;71.40;;;;;;5128062;27;20034;-77
2022/08/25 09:03:13;;;;;;;4.95;3.78;;;36.20;70.90;;;;;;5116529;27;20089;-78
2022/08/25 09:05:50;;;;;;;7.50;4.17;;;36.20;70.20;;;;;;5119536;27;20050;-78
2022/08/25 09:08:16;;;;;;;7.25;4.57;;;36.40;70.30;;;;;;5134004;27;20043;-76
2022/08/25 09:11:07;;;;;;;6.95;4.50;;;36.50;70.40;;;;;;5128141;27;20031;-79
2022/08/25 09:13:51;;;;;;;5.90;4.20;;;36.50;69.10;;;;;;5128893;27;20873;-77
2022/08/25 09:19:27;;;;;;;4.93;4.07;;;36.50;68.80;;;;;;5116570;27;20043;-77
2022/08/25 09:22:17;;;;;;;3.35;3.05;;;36.70;70.30;;;;;;5137916;27;20050;-79
2022/08/25 09:25:09;;;;;;;5.78;3.90;;;36.80;67.70;;;;;;5120781;27;20173;-77
2022/08/25 09:27:53;;;;;;;;;;;36.90;66.70;;;;;;5123007;27;20039;-78
2022/08/25 09:30:20;;;;;;;5.88;3.90;;;36.70;67.40;;;;;;5129258;27;19929;-78
2022/08/25 09:33:00;;;;;;;4.93;3.22;;;37.10;68.60;;;;;;5133367;27;20143;-78
2022/08/25 09:35:29;;;;;;;8.25;6.80;;;37.30;67.20;;;;;;5107849;27;20877;-77
2022/08/25 09:37:59;;;;;;;9.55;3.70;;;37.30;66.30;;;;;;5116661;27;20051;-78
2022/08/25 09:40:30;;;;;;;8.15;3.63;;;37.30;66.10;;;;;;5118100;27;20039;-77
2022/08/25 09:42:59;;;;;;;3.45;3.03;;;37.40;66.00;;;;;;5130345;27;20045;-78
2022/08/25 09:45:41;;;;;;;7.75;3.22;;;37.40;65.50;;;;;;5128060;27;20154;-78
2022/08/25 09:48:20;;;;;;;;;;;37.10;63.40;;;;;;5116991;27;20047;-77
2022/08/25 09:50:47;;;;;;;5.82;2.63;;;36.90;63.20;;;;;;5116027;27;20795;-77
2022/08/25 09:53:15;;;;;;;7.78;3.67;;;37.10;64.20;;;;;;5126948;27;20119;-77
2022/08/25 09:55:43;;;;;;;5.05;2.55;;;37.00;62.50;;;;;;5133325;27;20038;-79
2022/08/25 09:58:20;;;;;;;4.00;3.05;;;36.80;61.90;;;;;;5126211;27;20067;-78
2022/08/25 10:01:02;;;;;;;3.40;2.60;;;36.80;62.10;;;;;;5133006;27;20038;-78
2022/08/25 10:03:28;;;;;;;3.17;2.75;;;36.80;62.30;;;;;;5133059;27;20035;-78
2022/08/25 10:05:55;;;;;;;4.07;2.80;;;36.70;61.90;;;;;;5122540;27;20290;-78
2022/08/25 10:08:32;;;;;;;6.20;2.85;;;36.80;62.00;;;;;;5134481;27;20061;-78
2022/08/25 10:11:01;;;;;;;6.80;2.78;;;36.90;61.80;;;;;;5119496;27;20038;-78
2022/08/25 10:13:42;;;;;;;3.50;3.05;;;37.00;61.80;;;;;;5133806;27;20046;-78
2022/08/25 10:16:27;;;;;;;5.22;2.80;;;37.00;61.00;;;;;;5129985;27;20095;-78
2022/08/25 10:19:26;;;;;;;6.63;3.03;;;37.00;59.80;;;;;;5127344;27;20106;-78
2022/08/25 10:22:24;;;;;;;4.55;2.88;;;37.30;60.70;;;;;;5107021;27;20193;-78
2022/08/25 10:24:50;;;;;;;4.30;2.65;;;37.20;60.30;;;;;;5107784;27;20051;-78
2022/08/25 10:27:25;;;;;;;3.35;2.75;;;37.20;60.50;;;;;;5103422;27;20059;-79
2022/08/25 10:30:09;;;;;;;7.63;3.33;;;37.30;59.90;;;;;;5130072;27;20049;-81
2022/08/25 10:32:45;;;;;;;4.60;3.00;;;37.20;59.90;;;;;;5126409;27;20038;-79
2022/08/25 10:35:18;;;;;;;4.72;2.65;;;37.20;60.20;;;;;;5129591;27;20459;-81
2022/08/25 10:38:25;;;;;;;3.38;2.78;;;38.00;60.70;;;;;;5129035;27;20039;-81
2022/08/25 10:41:27;;;;;;;5.15;2.75;;;37.30;60.00;;;;;;5109963;27;20775;-81
2022/08/25 10:44:01;;;;;;;3.00;2.72;;;37.30;58.80;;;;;;5131497;27;20249;-79
2022/08/25 10:46:36;;;;;;;3.17;2.45;;;37.10;59.10;;;;;;5131447;27;20031;-78
2022/08/25 10:49:08;;;;;;;3.72;2.47;;;37.00;58.50;;;;;;5130349;27;20047;-79
2022/08/25 10:51:50;;;;;;;6.38;2.85;;;36.80;58.90;;;;;;5131289;27;20058;-79
2022/08/25 10:54:45;;;;;;;3.33;2.67;;;36.40;59.10;;;;;;5131184;27;20039;-78
2022/08/25 10:57:26;;;;;;;3.00;2.47;;;35.80;59.10;;;;;;5131152;27;20100;-78
2022/08/25 11:00:21;;;;;;;4.13;2.85;;;34.90;59.60;;;;;;5107110;27;20408;-81
2022/08/25 11:03:06;;;;;;;3.65;2.60;;;34.20;59.30;;;;;;5105185;27;20042;-80
2022/08/25 11:05:53;;;;;;;3.95;3.08;;;33.60;59.50;;;;;;5105958;27;20035;-80
2022/08/25 11:08:20;;;;;;;3.42;2.80;;;;;;;;;;5127401;27;20043;-80
2022/08/25 11:10:55;;;;;;;3.53;2.88;;;34.00;60.00;;;;;;5125514;27;20053;-82
2022/08/25 11:13:43;;;;;;;3.75;2.70;;;33.00;60.10;;;;;;5124681;27;20165;-81
2022/08/25 11:16:13;;;;;;;4.07;3.28;;;32.80;59.90;;;;;;5107882;27;20142;-81
2022/08/25 11:18:55;;;;;;;4.00;2.50;;;32.70;59.80;;;;;;5127537;27;20047;-81
2022/08/25 11:21:30;;;;;;;;;;;32.60;59.40;;;;;;5124483;27;20047;-80
2022/08/25 11:24:21;;;;;;;4.03;2.63;;;32.40;59.80;;;;;;5107358;27;19929;-81
2022/08/25 11:26:54;;;;;;;3.90;2.47;;;32.30;59.80;;;;;;5085802;28;20051;-81
2022/08/25 11:29:24;;;;;;;3.45;2.33;;;32.30;59.80;;;;;;5089214;28;20043;-83
2022/08/25 11:31:52;;;;;;;4.25;2.60;;;32.20;59.10;;;;;;5084106;28;20116;-80
2022/08/25 11:34:20;;;;;;;5.13;2.78;;;32.10;58.80;;;;;;5085541;28;20071;-80
2022/08/25 11:37:06;;;;;;;5.57;3.00;;;32.00;59.10;;;;;;5086104;28;20079;-80
2022/08/25 11:39:41;;;;;;;4.10;2.90;;;32.00;59.80;;;;;;5089644;28;20051;-79
2022/08/25 11:42:34;;;;;;;4.07;3.00;;;32.00;60.00;;;;;;5085187;28;20097;-79
2022/08/25 11:45:27;;;;;;;3.42;2.70;;;32.10;60.70;;;;;;5085752;28;20094;-79
2022/08/25 11:48:03;;;;;;;2.92;2.63;;;32.00;60.40;;;;;;5086910;28;20116;-79
2022/08/25 11:50:33;;;;;;;4.63;2.92;;;32.00;60.10;;;;;;5087427;28;20047;-80
2022/08/25 11:53:39;;;;;;;4.43;3.05;;;32.00;60.60;;;;;;5089204;28;20074;-80
2022/08/25 11:56:30;;;;;;;5.00;2.92;;;31.90;60.80;;;;;;5023204;28;20445;-79
2022/08/25 11:58:56;;;;;;;4.63;3.30;;;32.00;60.50;;;;;;5085693;28;21406;-80
2022/08/25 12:01:33;;;;;;;3.97;2.35;;;31.90;60.40;;;;;;5087536;28;20540;-79
2022/08/25 12:04:34;;;;;;;5.30;2.70;;;31.90;60.00;;;;;;5084530;28;20118;-80
2022/08/25 12:07:24;;;;;;;2.97;2.65;;;31.90;60.90;;;;;;5087292;28;20055;-81
2022/08/25 12:09:50;;;;;;;4.35;2.75;;;31.80;60.70;;;;;;5084797;28;20032;-82
2022/08/25 12:12:36;;;;;;;5.50;2.90;;;31.80;60.70;;;;;;5087339;28;20589;-79
2022/08/25 12:15:30;;;;;;;5.30;2.92;;;31.90;60.50;;;;;;5087761;28;20055;-79
2022/08/25 12:18:15;;;;;;;3.83;2.53;;;31.90;61.00;;;;;;5089533;28;20043;-77
2022/08/25 12:20:53;;;;;;;4.22;3.05;;;31.90;61.70;;;;;;5086364;28;20052;-77
2022/08/25 12:23:32;;;;;;;4.20;2.20;;;32.00;59.80;;;;;;5087488;28;20119;-78
2022/08/25 12:26:08;;;;;;;2.95;2.50;;;32.10;59.10;;;;;;5114934;27;20058;-79
2022/08/25 12:28:55;;;;;;;3.28;2.65;;;32.10;58.50;;;;;;5121854;27;20583;-79
2022/08/25 12:31:49;;;;;;;5.50;2.45;;;32.30;58.70;;;;;;5122387;27;20042;-78
2022/08/25 12:34:33;;;;;;;5.25;2.53;;;32.40;58.60;;;;;;5119402;27;20105;-78
2022/08/25 12:37:09;;;;;;;3.85;2.60;;;32.50;59.00;;;;;;5119688;27;20976;-78
2022/08/25 12:40:02;;;;;;;4.22;3.42;;;32.60;58.80;;;;;;5123254;27;20066;-79
2022/08/25 12:42:30;;;;;;;3.83;2.53;;;32.70;58.70;;;;;;5124674;27;20057;-78
2022/08/25 12:45:24;;;;;;;4.13;2.72;;;32.60;58.70;;;;;;5125671;27;20047;-80
2022/08/25 12:47:52;;;;;;;4.80;3.00;;;32.50;58.70;;;;;;5106355;27;20073;-78
2022/08/25 12:50:56;;;;;;;3.05;2.70;;;32.50;58.70;;;;;;5124552;27;20041;-78
2022/08/25 12:53:33;;;;;;;4.60;2.97;;;32.50;58.70;;;;;;5074453;27;20086;-78
2022/08/25 12:56:04;;;;;;;4.65;2.70;;;32.50;58.70;;;;;;5107850;27;20101;-78
2022/08/25 12:58:49;;;;;;;3.97;2.97;;;32.50;58.80;;;;;;5110812;27;20235;-79
2022/08/25 13:01:36;;;;;;;3.50;3.20;;;32.50;59.00;;;;;;5125089;27;20078;-78
2022/08/25 13:04:22;;;;;;;3.80;3.00;;;32.50;59.20;;;;;;5125130;27;20082;-78
2022/08/25 13:07:14;;;;;;;4.70;3.03;;;32.40;59.00;;;;;;5124731;27;20350;-78
2022/08/25 13:09:43;;;;;;;5.97;3.17;;;32.50;59.30;;;;;;5124626;27;20050;-78
2022/08/25 13:12:13;;;;;;;4.28;3.28;;;32.50;59.20;;;;;;5124527;27;20051;-78
2022/08/25 13:14:41;;;;;;;2.70;2.33;;;32.50;59.10;;;;;;5108332;27;20744;-78